Terminal Aerodrome Forecast
Issued by NWS

Home | Current Version | Previous Version | Text Only | Print | Product List | Glossary On
Versions: 1 2 3 4 5 6 7 8 9 10 11 12 13 14 15 16 17 18 19 20
000
FTUS41 KOKX 020800 AAA
TAFSWF
TAF AMD
KSWF 020847Z 0209/0312 28005KT 6SM BR SCT025 OVC050
     FM021200 30012G19KT P6SM SCT030 BKN070
     FM021500 30017G27KT P6SM SCT050
     FM022300 30011KT P6SM SKC
     FM030300 29007KT P6SM SKC
     FM030600 VRB03KT P6SM SCT250
      AMD NOT SKED=

USA.gov is the U.S. government's official web portal to all federal, state and local government web resources and services.